CheckWX is a tool to help pilots better visualize weather data.  It is not intended as a substitute for an official pre-flight weather briefing.

09:54:08 UTC

KIFP METAR
Laughlin / Bullhead International Airport
Bullhead City, Arizona, USA
Current

19 mins ago

KIFP 190935Z AUTO 09003KT 10SM CLR 28/M06 A2978 RMK AO2
Observed
Aug-19 @ 09:35 UTC
Wind
  • 090° at 3 KTS
Visibility
10 SM
Flight Rules
VFR
Cloud Levels
  • Clear skies
Temperature
28°C / 82°F
Dewpoint
-6°C / 21°F
Humidity
10%
Altimeter
29.78" Hg
Pressure
1008.42 hPa
Previous

39 mins ago

KIFP 190915Z AUTO 00000KT 10SM CLR 29/M06 A2978 RMK AO2
Observed
Aug-19 @ 09:15 UTC
Visibility
10 SM
Flight Rules
VFR
Cloud Levels
  • Clear skies
Temperature
29°C / 84°F
Dewpoint
-6°C / 21°F
Humidity
10%
Altimeter
29.78" Hg
Pressure
1008.42 hPa
Previous

59 mins ago

KIFP 190855Z AUTO 09003KT 10SM CLR 29/M06 A2978 RMK AO2
Observed
Aug-19 @ 08:55 UTC
Wind
  • 090° at 3 KTS
Visibility
10 SM
Flight Rules
VFR
Cloud Levels
  • Clear skies
Temperature
29°C / 84°F
Dewpoint
-6°C / 21°F
Humidity
10%
Altimeter
29.78" Hg
Pressure
1008.42 hPa